Time;durP1;ratioP1;P1;durP2;ratioP2;P2;SDS_P1;SDS_P2;PMS_P1;PMS_P2;Temp;Humidity;BMP_temperature;BMP_pressure;BME280_temperature;BME280_humidity;BME280_pressure;Samples;Min_cycle;Max_cycle;Signal;HPM_P1;HPM_P2
2023/09/18 00:00:21;;;;;;;9.20;5.05;;;;;;;;;;6288502;22;19987;-45
2023/09/18 00:02:50;;;;;;;8.38;5.30;;;;;;;;;;6288144;22;20216;-48
2023/09/18 00:05:17;;;;;;;14.80;5.43;;;;;;;;;;6288620;22;20202;-48
2023/09/18 00:07:44;;;;;;;7.35;5.82;;;;;;;;;;6288092;22;20183;-46
2023/09/18 00:10:11;;;;;;;13.35;5.70;;;;;;;;;;6286584;22;19995;-44
2023/09/18 00:12:38;;;;;;;19.52;5.70;;;;;;;;;;6287560;22;20023;-45
2023/09/18 00:15:08;;;;;;;9.32;5.65;;;;;;;;;;6287942;22;20035;-43
2023/09/18 00:17:35;;;;;;;7.35;5.30;;;;;;;;;;6288114;22;20010;-44
2023/09/18 00:20:06;;;;;;;8.93;5.38;;;;;;;;;;6288381;22;19999;-45
2023/09/18 00:22:33;;;;;;;7.78;4.88;;;;;;;;;;6288137;22;20035;-46
2023/09/18 00:25:01;;;;;;;8.77;5.13;;;;;;;;;;6287181;22;19995;-45
2023/09/18 00:27:28;;;;;;;6.82;5.60;;;;;;;;;;6288484;22;20161;-47
2023/09/18 00:29:54;;;;;;;6.40;5.47;;;;;;;;;;6287983;22;20000;-52
2023/09/18 00:32:21;;;;;;;8.18;6.22;;;;;;;;;;6288066;22;20004;-57
2023/09/18 00:34:48;;;;;;;10.82;6.50;;;;;;;;;;6288059;22;20011;-47
2023/09/18 00:37:16;;;;;;;8.43;7.47;;;;;;;;;;6288121;22;20081;-43
2023/09/18 00:39:44;;;;;;;8.20;6.38;;;;;;;;;;6287583;22;20203;-45
2023/09/18 00:42:13;;;;;;;17.25;6.40;;;;;;;;;;6288104;22;19991;-39
2023/09/18 00:44:41;;;;;;;5.93;5.32;;;;;;;;;;6287793;22;20012;-48
2023/09/18 00:47:08;;;;;;;10.18;6.05;;;;;;;;;;6288556;22;20019;-43
2023/09/18 00:49:36;;;;;;;8.15;6.13;;;;;;;;;;6288314;22;19995;-49
2023/09/18 00:52:05;;;;;;;6.00;5.40;;;;;;;;;;6288576;22;19991;-41
2023/09/18 00:54:32;;;;;;;7.07;5.47;;;;;;;;;;6287630;22;20051;-41
2023/09/18 00:57:02;;;;;;;8.02;7.22;;;;;;;;;;6289286;22;19996;-42
2023/09/18 00:59:29;;;;;;;9.27;6.53;;;;;;;;;;6288070;22;20284;-40
2023/09/18 01:01:55;;;;;;;7.95;5.68;;;;;;;;;;6288372;22;20019;-39
2023/09/18 01:04:22;;;;;;;10.55;5.93;;;;;;;;;;6287999;22;19991;-49
2023/09/18 01:06:51;;;;;;;7.63;5.30;;;;;;;;;;6287686;22;19991;-50
2023/09/18 01:09:18;;;;;;;6.28;5.00;;;;;;;;;;6287465;22;20050;-50
2023/09/18 01:11:51;;;;;;;9.25;5.00;;;;;;;;;;6288025;22;19999;-51
2023/09/18 01:14:21;;;;;;;7.88;5.05;;;;;;;;;;6287145;22;20110;-52
2023/09/18 01:17:01;;;;;;;6.63;4.78;;;;;;;;;;6288258;22;20271;-52
2023/09/18 01:19:47;;;;;;;34.47;6.68;;;;;;;;;;6287763;22;20299;-50
2023/09/18 01:22:18;;;;;;;43.95;7.90;;;;;;;;;;6286801;22;19999;-49
2023/09/18 01:24:48;;;;;;;47.70;7.55;;;;;;;;;;6284405;22;20008;-44
2023/09/18 01:27:18;;;;;;;19.63;5.85;;;;;;;;;;6285729;22;20000;-49
2023/09/18 01:29:45;;;;;;;11.35;5.55;;;;;;;;;;6285808;22;20008;-52
2023/09/18 01:32:12;;;;;;;8.55;4.88;;;;;;;;;;6286021;22;20015;-48
2023/09/18 01:34:41;;;;;;;46.63;11.50;;;;;;;;;;6285534;22;20011;-51
2023/09/18 01:37:10;;;;;;;65.55;17.30;;;;;;;;;;6285235;22;20042;-48
2023/09/18 01:39:39;;;;;;;25.25;8.05;;;;;;;;;;6285180;22;20045;-52
2023/09/18 01:42:06;;;;;;;22.58;7.82;;;;;;;;;;6286060;22;20474;-47
2023/09/18 01:44:39;;;;;;;41.40;13.15;;;;;;;;;;6285606;22;19996;-49
2023/09/18 01:47:08;;;;;;;17.70;10.45;;;;;;;;;;6285059;22;20026;-55
2023/09/18 01:49:36;;;;;;;18.42;6.93;;;;;;;;;;6287702;22;19999;-48
2023/09/18 01:52:03;;;;;;;10.15;5.28;;;;;;;;;;6287860;22;20010;-43
2023/09/18 01:54:32;;;;;;;8.90;5.13;;;;;;;;;;6286253;22;20007;-53
2023/09/18 01:56:59;;;;;;;5.30;4.72;;;;;;;;;;6288086;22;20224;-53
2023/09/18 01:59:25;;;;;;;5.30;4.80;;;;;;;;;;6286612;22;20011;-55
2023/09/18 02:01:53;;;;;;;8.02;4.65;;;;;;;;;;6287716;22;19995;-49
2023/09/18 02:04:20;;;;;;;5.53;4.60;;;;;;;;;;6287234;22;20063;-49
2023/09/18 02:06:47;;;;;;;6.68;4.75;;;;;;;;;;6287723;22;20010;-51
2023/09/18 02:09:14;;;;;;;10.20;9.23;;;;;;;;;;6286596;22;19995;-51
2023/09/18 02:11:41;;;;;;;8.65;5.60;;;;;;;;;;6286960;22;20007;-49
2023/09/18 02:14:09;;;;;;;7.63;6.63;;;;;;;;;;6259754;22;20012;-52
2023/09/18 02:16:46;;;;;;;7.68;6.68;;;;;;;;;;6287490;22;20043;-52
2023/09/18 02:19:17;;;;;;;8.95;6.32;;;;;;;;;;6287043;22;20012;-54
2023/09/18 02:21:45;;;;;;;5.60;5.07;;;;;;;;;;6286993;22;20026;-50
2023/09/18 02:24:11;;;;;;;8.13;4.50;;;;;;;;;;6286729;22;20051;-51
2023/09/18 02:26:38;;;;;;;5.68;4.30;;;;;;;;;;6287034;22;19988;-50
2023/09/18 02:29:07;;;;;;;5.75;4.30;;;;;;;;;;6286564;22;20007;-52
2023/09/18 02:31:34;;;;;;;5.22;4.00;;;;;;;;;;6287081;22;20279;-48
2023/09/18 02:34:01;;;;;;;4.82;4.32;;;;;;;;;;6286784;22;20000;-52
2023/09/18 02:36:31;;;;;;;4.97;4.03;;;;;;;;;;6287202;22;20023;-48
2023/09/18 02:38:57;;;;;;;4.93;3.90;;;;;;;;;;6286623;22;20004;-49
2023/09/18 02:41:24;;;;;;;6.20;4.28;;;;;;;;;;6287145;22;20019;-50
2023/09/18 02:43:51;;;;;;;5.68;4.25;;;;;;;;;;6286625;22;19999;-54
2023/09/18 02:46:18;;;;;;;6.53;4.30;;;;;;;;;;6286711;22;20003;-55
2023/09/18 02:48:44;;;;;;;4.82;4.35;;;;;;;;;;6286628;22;20047;-52
2023/09/18 02:51:11;;;;;;;6.07;3.65;;;;;;;;;;6286979;22;20011;-53
2023/09/18 02:53:38;;;;;;;3.97;3.65;;;;;;;;;;6286540;22;20326;-50
2023/09/18 02:56:04;;;;;;;4.25;3.85;;;;;;;;;;6287678;22;19996;-51
2023/09/18 02:58:31;;;;;;;5.30;4.25;;;;;;;;;;6286532;22;20004;-51
2023/09/18 03:00:59;;;;;;;6.20;3.50;;;;;;;;;;6287559;22;20047;-50
2023/09/18 03:03:26;;;;;;;3.95;3.50;;;;;;;;;;6286880;22;19992;-59
2023/09/18 03:05:53;;;;;;;5.30;3.65;;;;;;;;;;6287041;22;20031;-52
2023/09/18 03:08:20;;;;;;;4.45;3.15;;;;;;;;;;6286529;22;20000;-50
2023/09/18 03:10:46;;;;;;;5.93;3.58;;;;;;;;;;6286977;22;20304;-49
2023/09/18 03:13:13;;;;;;;3.97;3.53;;;;;;;;;;6286493;22;19996;-53
2023/09/18 03:15:40;;;;;;;5.28;4.30;;;;;;;;;;6286390;22;20008;-51
2023/09/18 03:18:07;;;;;;;5.47;4.97;;;;;;;;;;6286024;22;20292;-51
2023/09/18 03:20:33;;;;;;;4.50;3.50;;;;;;;;;;6286385;22;20003;-50
2023/09/18 03:23:01;;;;;;;4.43;3.63;;;;;;;;;;6286479;22;20000;-50
2023/09/18 03:25:27;;;;;;;3.75;3.13;;;;;;;;;;6287152;22;19999;-48
2023/09/18 03:27:55;;;;;;;2.72;2.50;;;;;;;;;;6286642;22;19999;-44
2023/09/18 03:30:23;;;;;;;4.70;2.65;;;;;;;;;;6286922;22;20019;-48
2023/09/18 03:32:50;;;;;;;4.10;2.50;;;;;;;;;;6286923;22;19998;-48
2023/09/18 03:35:20;;;;;;;3.28;2.22;;;;;;;;;;6286562;22;20004;-50
2023/09/18 03:37:46;;;;;;;5.28;2.60;;;;;;;;;;6286343;22;20008;-49
2023/09/18 03:40:13;;;;;;;2.95;2.50;;;;;;;;;;6286692;22;20012;-50
2023/09/18 03:42:40;;;;;;;4.18;2.50;;;;;;;;;;6286516;22;20004;-47
2023/09/18 03:45:07;;;;;;;2.53;2.25;;;;;;;;;;6286876;22;20007;-47
2023/09/18 03:47:37;;;;;;;4.55;2.22;;;;;;;;;;6286588;22;19995;-50
2023/09/18 03:50:04;;;;;;;3.35;2.25;;;;;;;;;;6286459;22;20000;-50
2023/09/18 03:52:31;;;;;;;6.38;2.30;;;;;;;;;;6286871;22;20004;-48
2023/09/18 03:54:57;;;;;;;3.65;2.30;;;;;;;;;;6286129;22;20187;-50
2023/09/18 03:57:24;;;;;;;3.03;2.15;;;;;;;;;;6286674;22;20004;-52
2023/09/18 03:59:51;;;;;;;3.47;2.15;;;;;;;;;;6286950;22;20004;-50
2023/09/18 04:02:18;;;;;;;4.63;2.30;;;;;;;;;;6288707;22;19999;-49
2023/09/18 04:04:45;;;;;;;3.25;2.28;;;;;;;;;;6288642;22;19996;-50
2023/09/18 04:07:16;;;;;;;3.83;1.90;;;;;;;;;;6289266;22;20011;-51
2023/09/18 04:09:42;;;;;;;2.70;2.13;;;;;;;;;;6288820;22;20003;-50
2023/09/18 04:12:10;;;;;;;2.00;1.80;;;;;;;;;;6289063;22;20010;-53
2023/09/18 04:14:36;;;;;;;2.65;1.90;;;;;;;;;;6288744;22;20026;-50
2023/09/18 04:17:03;;;;;;;3.88;1.95;;;;;;;;;;6289157;22;20288;-49
2023/09/18 04:19:30;;;;;;;1.73;1.63;;;;;;;;;;6288258;22;20003;-52
2023/09/18 04:21:57;;;;;;;21.20;3.42;;;;;;;;;;6288988;22;20016;-52
2023/09/18 04:24:24;;;;;;;3.75;2.80;;;;;;;;;;6288577;22;19984;-50
2023/09/18 04:26:53;;;;;;;3.95;2.85;;;;;;;;;;6288936;22;20006;-54
2023/09/18 04:29:20;;;;;;;4.00;2.70;;;;;;;;;;6288296;22;19999;-47
2023/09/18 04:31:48;;;;;;;3.95;3.03;;;;;;;;;;6289008;22;20011;-48
2023/09/18 04:34:14;;;;;;;2.83;2.55;;;;;;;;;;6288249;22;20003;-49
2023/09/18 04:36:43;;;;;;;4.15;2.88;;;;;;;;;;6288132;22;20026;-49
2023/09/18 04:39:10;;;;;;;3.22;2.70;;;;;;;;;;6288168;22;20292;-50
2023/09/18 04:41:36;;;;;;;3.88;2.63;;;;;;;;;;6287803;22;20007;-48
2023/09/18 04:44:04;;;;;;;5.38;3.42;;;;;;;;;;6288148;22;20023;-52
2023/09/18 04:46:31;;;;;;;4.30;3.20;;;;;;;;;;6288547;22;19995;-48
2023/09/18 04:48:58;;;;;;;5.95;3.08;;;;;;;;;;6288165;22;20019;-53
2023/09/18 04:51:25;;;;;;;3.50;3.00;;;;;;;;;;6288070;22;20027;-50
2023/09/18 04:53:51;;;;;;;4.28;3.22;;;;;;;;;;6288182;22;20015;-50
2023/09/18 04:56:20;;;;;;;4.38;2.80;;;;;;;;;;6288460;22;20219;-52
2023/09/18 04:58:47;;;;;;;2.60;2.40;;;;;;;;;;6288303;22;20207;-54
2023/09/18 05:01:13;;;;;;;2.63;2.03;;;;;;;;;;6288461;22;20047;-49
2023/09/18 05:03:41;;;;;;;4.82;2.25;;;;;;;;;;6288074;22;20019;-51
2023/09/18 05:06:08;;;;;;;4.55;2.42;;;;;;;;;;6288415;22;20047;-46
2023/09/18 05:08:34;;;;;;;3.97;2.10;;;;;;;;;;6288136;22;20217;-53
2023/09/18 05:11:01;;;;;;;3.70;1.90;;;;;;;;;;6288202;22;20004;-47
2023/09/18 05:13:28;;;;;;;3.60;1.90;;;;;;;;;;6287272;22;20296;-51
2023/09/18 05:15:54;;;;;;;3.03;1.98;;;;;;;;;;6288202;22;20043;-55
2023/09/18 05:18:21;;;;;;;4.63;1.60;;;;;;;;;;6288046;22;20074;-51
2023/09/18 05:20:48;;;;;;;1.70;1.45;;;;;;;;;;6287969;22;20054;-49
2023/09/18 05:23:14;;;;;;;5.13;1.70;;;;;;;;;;6287871;22;19988;-49
2023/09/18 05:25:44;;;;;;;2.88;1.50;;;;;;;;;;6287848;22;20022;-50
2023/09/18 05:28:10;;;;;;;3.60;1.40;;;;;;;;;;6287618;22;20082;-53
2023/09/18 05:30:40;;;;;;;2.83;1.45;;;;;;;;;;6287763;22;20331;-49
2023/09/18 05:33:08;;;;;;;4.90;1.80;;;;;;;;;;6287695;22;20299;-48
2023/09/18 05:35:42;;;;;;;3.05;1.38;;;;;;;;;;6287762;22;20318;-49
2023/09/18 05:38:10;;;;;;;2.55;1.65;;;;;;;;;;6287220;22;20022;-49
2023/09/18 05:40:37;;;;;;;3.95;1.60;;;;;;;;;;6287894;22;20273;-49
2023/09/18 05:43:04;;;;;;;3.83;1.85;;;;;;;;;;6287443;22;20061;-49
2023/09/18 05:45:32;;;;;;;3.58;1.58;;;;;;;;;;6287632;22;20004;-51
2023/09/18 05:48:03;;;;;;;4.20;1.90;;;;;;;;;;6287402;22;20053;-49
2023/09/18 05:50:32;;;;;;;4.53;1.60;;;;;;;;;;6287611;22;20035;-49
2023/09/18 05:53:00;;;;;;;4.30;1.60;;;;;;;;;;6287879;22;20010;-52
2023/09/18 05:55:29;;;;;;;4.63;1.88;;;;;;;;;;6287439;22;20191;-50
2023/09/18 05:57:57;;;;;;;3.30;1.73;;;;;;;;;;6287606;22;20307;-49
2023/09/18 06:00:24;;;;;;;3.67;1.80;;;;;;;;;;6287484;22;20008;-49
2023/09/18 06:02:51;;;;;;;4.07;1.88;;;;;;;;;;6287148;22;20007;-52
2023/09/18 06:05:21;;;;;;;13.52;2.60;;;;;;;;;;6287420;22;20038;-50
2023/09/18 06:07:50;;;;;;;3.03;1.90;;;;;;;;;;6287553;22;20291;-53
2023/09/18 06:10:17;;;;;;;4.75;2.00;;;;;;;;;;6287291;22;20018;-50
2023/09/18 06:12:45;;;;;;;2.75;1.95;;;;;;;;;;6287496;22;19992;-52
2023/09/18 06:15:12;;;;;;;4.78;2.10;;;;;;;;;;6287282;22;20025;-50
2023/09/18 06:17:39;;;;;;;4.07;2.20;;;;;;;;;;6287193;22;20038;-48
2023/09/18 06:20:09;;;;;;;3.60;2.15;;;;;;;;;;6287325;22;20287;-49
2023/09/18 06:22:37;;;;;;;4.35;1.80;;;;;;;;;;6287451;22;19999;-46
2023/09/18 06:25:04;;;;;;;4.30;2.13;;;;;;;;;;6287283;22;20012;-49
2023/09/18 06:27:32;;;;;;;6.30;2.80;;;;;;;;;;6287438;22;19991;-48
2023/09/18 06:29:59;;;;;;;2.78;2.40;;;;;;;;;;6286891;22;20007;-45
2023/09/18 06:32:25;;;;;;;3.92;2.30;;;;;;;;;;6287588;22;20513;-49
2023/09/18 06:34:53;;;;;;;3.47;2.40;;;;;;;;;;6287338;22;19998;-49
2023/09/18 06:37:20;;;;;;;6.72;2.70;;;;;;;;;;6287058;22;20330;-50
2023/09/18 06:39:47;;;;;;;5.63;2.85;;;;;;;;;;6286780;22;20010;-49
2023/09/18 06:42:13;;;;;;;5.25;2.30;;;;;;;;;;6287707;22;19996;-48
2023/09/18 06:44:41;;;;;;;4.78;2.40;;;;;;;;;;6286854;22;19996;-48
2023/09/18 06:47:07;;;;;;;3.47;2.83;;;;;;;;;;6287034;22;20015;-49
2023/09/18 06:49:34;;;;;;;6.03;2.78;;;;;;;;;;6287140;22;20007;-48
2023/09/18 06:52:01;;;;;;;3.65;2.42;;;;;;;;;;6287541;22;20069;-48
2023/09/18 06:54:27;;;;;;;3.47;2.58;;;;;;;;;;6286752;22;20008;-48
2023/09/18 06:56:54;;;;;;;8.05;2.90;;;;;;;;;;6287625;22;20002;-46
2023/09/18 06:59:21;;;;;;;3.30;2.45;;;;;;;;;;6287035;22;19999;-49
2023/09/18 07:01:47;;;;;;;4.05;2.78;;;;;;;;;;6287138;22;20011;-47
2023/09/18 07:04:14;;;;;;;3.90;2.28;;;;;;;;;;6286985;22;19983;-48
2023/09/18 07:06:40;;;;;;;5.63;2.60;;;;;;;;;;6287495;22;20023;-51
2023/09/18 07:09:07;;;;;;;3.55;2.85;;;;;;;;;;6286836;22;20026;-46
2023/09/18 07:11:34;;;;;;;4.55;2.50;;;;;;;;;;6287285;22;19999;-52
2023/09/18 07:14:06;;;;;;;4.72;2.83;;;;;;;;;;6287026;22;20000;-48
2023/09/18 07:16:33;;;;;;;8.40;2.97;;;;;;;;;;6287088;22;20039;-49
2023/09/18 07:19:01;;;;;;;3.72;2.40;;;;;;;;;;6286759;22;19996;-49
2023/09/18 07:21:29;;;;;;;4.70;3.00;;;;;;;;;;6287167;22;20007;-48
2023/09/18 07:23:55;;;;;;;4.18;2.63;;;;;;;;;;6286644;22;20010;-48
2023/09/18 07:26:22;;;;;;;6.07;2.30;;;;;;;;;;6287377;22;19992;-52
2023/09/18 07:28:49;;;;;;;7.30;2.65;;;;;;;;;;6286965;22;20047;-50
2023/09/18 07:31:15;;;;;;;4.38;2.85;;;;;;;;;;6287352;22;20016;-52
2023/09/18 07:33:42;;;;;;;4.50;2.70;;;;;;;;;;6287024;22;19992;-51
2023/09/18 07:36:14;;;;;;;5.30;2.95;;;;;;;;;;6288160;22;20008;-50
2023/09/18 07:38:43;;;;;;;4.63;2.65;;;;;;;;;;6288659;22;20011;-50
2023/09/18 07:41:10;;;;;;;5.47;3.00;;;;;;;;;;6288540;22;20007;-48
2023/09/18 07:43:36;;;;;;;5.85;2.90;;;;;;;;;;6288755;22;19995;-49
2023/09/18 07:46:03;;;;;;;6.28;2.63;;;;;;;;;;6289025;22;20038;-49
2023/09/18 07:48:29;;;;;;;5.45;2.95;;;;;;;;;;6288987;22;19984;-49
2023/09/18 07:50:56;;;;;;;6.53;2.60;;;;;;;;;;6288891;22;20063;-48
2023/09/18 07:53:23;;;;;;;5.65;3.00;;;;;;;;;;6288708;22;20215;-49
2023/09/18 07:55:57;;;;;;;7.05;2.80;;;;;;;;;;6288784;22;20016;-57
2023/09/18 07:58:24;;;;;;;6.53;2.78;;;;;;;;;;6288636;22;20000;-62
2023/09/18 08:00:53;;;;;;;6.20;2.90;;;;;;;;;;6289013;22;20064;-54
2023/09/18 08:03:22;;;;;;;5.85;2.70;;;;;;;;;;6288657;22;19996;-49
2023/09/18 08:05:52;;;;;;;7.45;3.00;;;;;;;;;;6288759;22;20272;-50
2023/09/18 08:08:20;;;;;;;8.98;3.25;;;;;;;;;;6288668;22;19994;-52
2023/09/18 08:10:47;;;;;;;5.82;2.80;;;;;;;;;;6288865;22;20047;-58
2023/09/18 08:13:14;;;;;;;6.13;3.10;;;;;;;;;;6288476;22;19998;-57
2023/09/18 08:15:41;;;;;;;5.68;3.08;;;;;;;;;;6288870;22;19996;-62
2023/09/18 08:18:07;;;;;;;4.90;2.60;;;;;;;;;;6288651;22;20000;-55
2023/09/18 08:20:36;;;;;;;7.20;3.08;;;;;;;;;;6288413;22;20043;-59
2023/09/18 08:23:05;;;;;;;6.43;3.40;;;;;;;;;;6288448;22;20014;-59
2023/09/18 08:25:32;;;;;;;5.57;3.08;;;;;;;;;;6288479;22;20007;-50
2023/09/18 08:27:59;;;;;;;8.88;3.25;;;;;;;;;;6288292;22;20039;-49
2023/09/18 08:30:26;;;;;;;4.78;2.63;;;;;;;;;;6288476;22;20008;-48
2023/09/18 08:32:52;;;;;;;5.30;2.90;;;;;;;;;;6288480;22;20015;-49
2023/09/18 08:35:19;;;;;;;6.55;2.92;;;;;;;;;;6288324;22;20003;-52
2023/09/18 08:37:46;;;;;;;6.68;3.13;;;;;;;;;;6288511;22;19995;-48
2023/09/18 08:40:14;;;;;;;5.40;3.10;;;;;;;;;;6287769;22;20062;-48
2023/09/18 08:42:48;;;;;;;6.72;3.00;;;;;;;;;;6288148;22;19992;-48
2023/09/18 08:45:18;;;;;;;10.05;3.45;;;;;;;;;;6288364;22;20000;-51
2023/09/18 08:47:45;;;;;;;7.57;2.90;;;;;;;;;;6288214;22;20055;-49
2023/09/18 08:50:12;;;;;;;5.95;3.10;;;;;;;;;;6288098;22;19988;-49
2023/09/18 08:52:39;;;;;;;5.00;2.63;;;;;;;;;;6288230;22;19999;-49
2023/09/18 08:55:07;;;;;;;5.78;2.80;;;;;;;;;;6288272;22;20003;-49
2023/09/18 08:57:35;;;;;;;6.28;2.97;;;;;;;;;;6287882;22;20058;-50
2023/09/18 09:00:06;;;;;;;6.25;2.70;;;;;;;;;;6287988;22;20045;-50
2023/09/18 09:02:34;;;;;;;7.80;2.83;;;;;;;;;;6287852;22;20003;-52
2023/09/18 09:05:00;;;;;;;9.60;3.15;;;;;;;;;;6288178;22;19999;-51
2023/09/18 09:07:30;;;;;;;4.40;2.90;;;;;;;;;;6288060;22;20010;-48
2023/09/18 09:09:56;;;;;;;10.43;3.03;;;;;;;;;;6287876;22;19999;-50
2023/09/18 09:12:43;;;;;;;6.25;2.40;;;;;;;;;;6287947;22;19995;-48
2023/09/18 09:15:10;;;;;;;4.63;3.03;;;;;;;;;;6262771;22;20008;-53
2023/09/18 09:17:37;;;;;;;9.25;3.00;;;;;;;;;;6287728;22;20308;-49
2023/09/18 09:20:11;;;;;;;5.43;3.28;;;;;;;;;;6287716;22;20042;-49
2023/09/18 09:22:40;;;;;;;5.78;3.22;;;;;;;;;;6287744;22;20023;-51
2023/09/18 09:25:31;;;;;;;6.57;3.20;;;;;;;;;;6287045;22;20008;-49
2023/09/18 09:27:58;;;;;;;5.38;2.78;;;;;;;;;;6287575;22;20000;-55
2023/09/18 09:30:26;;;;;;;4.68;2.72;;;;;;;;;;6287651;22;20012;-50
2023/09/18 09:32:54;;;;;;;5.60;3.30;;;;;;;;;;6287700;22;19999;-51
2023/09/18 09:35:26;;;;;;;8.15;2.83;;;;;;;;;;6288070;22;20052;-48
2023/09/18 09:37:55;;;;;;;8.88;3.05;;;;;;;;;;6287861;22;20006;-48
2023/09/18 09:40:22;;;;;;;5.47;2.80;;;;;;;;;;6287699;22;20022;-49
2023/09/18 09:42:53;;;;;;;6.63;2.90;;;;;;;;;;6287348;22;20034;-51
2023/09/18 09:45:20;;;;;;;5.25;2.72;;;;;;;;;;6288232;22;20168;-49
2023/09/18 09:47:47;;;;;;;6.00;2.72;;;;;;;;;;6287529;22;20083;-50
2023/09/18 09:50:18;;;;;;;8.82;2.65;;;;;;;;;;6287298;22;20003;-56
2023/09/18 09:52:48;;;;;;;6.32;3.28;;;;;;;;;;6287481;22;20041;-52
2023/09/18 09:55:21;;;;;;;6.70;2.97;;;;;;;;;;6287357;22;20000;-52
2023/09/18 09:57:48;;;;;;;7.20;3.30;;;;;;;;;;6287130;22;20004;-50
2023/09/18 10:00:25;;;;;;;8.00;3.08;;;;;;;;;;6287540;22;20004;-57
2023/09/18 10:02:52;;;;;;;7.25;3.47;;;;;;;;;;6287052;22;20322;-54
2023/09/18 10:05:19;;;;;;;9.80;3.30;;;;;;;;;;6287365;22;20094;-51
2023/09/18 10:07:46;;;;;;;4.25;3.05;;;;;;;;;;6287537;22;20050;-52
2023/09/18 10:10:13;;;;;;;6.80;3.40;;;;;;;;;;6286996;22;20063;-49
2023/09/18 10:12:40;;;;;;;5.32;3.40;;;;;;;;;;6287056;22;20004;-49
2023/09/18 10:15:09;;;;;;;7.68;3.33;;;;;;;;;;6287462;22;20192;-48
2023/09/18 10:17:37;;;;;;;6.00;3.60;;;;;;;;;;6287136;22;20054;-51
2023/09/18 10:20:19;;;;;;;6.53;4.10;;;;;;;;;;6287107;22;20062;-50
2023/09/18 10:22:46;;;;;;;7.10;3.73;;;;;;;;;;6287135;22;20010;-55
2023/09/18 10:25:24;;;;;;;10.27;4.20;;;;;;;;;;6286756;22;20073;-55
2023/09/18 10:27:53;;;;;;;6.97;4.30;;;;;;;;;;6286594;22;20007;-56
2023/09/18 10:30:23;;;;;;;8.85;4.50;;;;;;;;;;6287074;22;20011;-61
2023/09/18 10:32:51;;;;;;;7.55;4.57;;;;;;;;;;6287012;22;20055;-50
2023/09/18 10:35:19;;;;;;;9.57;5.38;;;;;;;;;;6286565;22;20168;-51
2023/09/18 10:37:46;;;;;;;7.63;4.82;;;;;;;;;;6285675;22;20026;-50
2023/09/18 10:40:13;;;;;;;8.98;4.70;;;;;;;;;;6286863;22;20007;-50
2023/09/18 10:42:41;;;;;;;11.68;5.32;;;;;;;;;;6286874;22;20011;-50
2023/09/18 10:45:11;;;;;;;15.73;5.60;;;;;;;;;;6287197;22;19995;-50
2023/09/18 10:47:45;;;;;;;11.00;5.55;;;;;;;;;;6287072;22;20043;-50
2023/09/18 10:50:11;;;;;;;9.25;5.25;;;;;;;;;;6259976;22;20063;-50
2023/09/18 10:52:46;;;;;;;15.95;5.90;;;;;;;;;;6286261;22;20019;-50
2023/09/18 10:55:13;;;;;;;9.00;5.43;;;;;;;;;;6287023;22;20240;-57
2023/09/18 10:57:51;;;;;;;13.95;6.20;;;;;;;;;;6287112;22;20011;-50
2023/09/18 11:00:22;;;;;;;17.30;6.05;;;;;;;;;;6286731;22;20026;-46
2023/09/18 11:03:08;;;;;;;11.30;5.50;;;;;;;;;;6285442;22;20259;-47
2023/09/18 11:05:36;;;;;;;13.25;5.20;;;;;;;;;;6262246;22;20003;-52
2023/09/18 11:08:21;;;;;;;10.10;4.65;;;;;;;;;;6284942;22;20433;-54
2023/09/18 11:10:57;;;;;;;8.90;4.80;;;;;;;;;;6285467;22;20055;-51
2023/09/18 11:13:31;;;;;;;8.55;6.82;;;;;;;;;;6286671;22;20007;-51
2023/09/18 11:16:03;;;;;;;30.58;28.20;;;;;;;;;;6286942;22;20307;-52
2023/09/18 11:18:35;;;;;;;60.88;55.88;;;;;;;;;;6284708;22;20004;-48
2023/09/18 11:21:12;;;;;;;37.97;34.88;;;;;;;;;;6284658;22;20325;-48
2023/09/18 11:23:43;;;;;;;17.50;15.80;;;;;;;;;;6284854;22;20050;-54
2023/09/18 11:26:10;;;;;;;9.90;6.03;;;;;;;;;;6285235;22;20004;-57
2023/09/18 11:28:37;;;;;;;9.40;8.05;;;;;;;;;;6285055;22;20008;-59
2023/09/18 11:31:04;;;;;;;8.48;6.70;;;;;;;;;;6284897;22;20014;-60
2023/09/18 11:33:31;;;;;;;24.58;11.63;;;;;;;;;;6286666;22;20006;-59
2023/09/18 11:36:03;;;;;;;11.48;6.15;;;;;;;;;;6287223;22;19999;-60
2023/09/18 11:38:30;;;;;;;16.80;5.70;;;;;;;;;;6287672;22;19984;-53
2023/09/18 11:41:01;;;;;;;28.90;6.55;;;;;;;;;;6287400;22;20000;-53
2023/09/18 11:43:35;;;;;;;33.35;7.20;;;;;;;;;;6286814;22;20315;-53
2023/09/18 11:46:05;;;;;;;59.88;9.32;;;;;;;;;;6287009;22;20042;-53
2023/09/18 11:48:34;;;;;;;72.93;10.88;;;;;;;;;;6287035;22;20187;-53
2023/09/18 11:51:04;;;;;;;59.08;9.75;;;;;;;;;;6287183;22;20003;-56
2023/09/18 11:53:34;;;;;;;79.93;10.90;;;;;;;;;;6286763;22;20050;-51
2023/09/18 11:56:03;;;;;;;73.22;10.95;;;;;;;;;;6286992;22;20004;-51
2023/09/18 11:58:30;;;;;;;31.27;8.75;;;;;;;;;;6286617;22;19983;-50
2023/09/18 12:00:57;;;;;;;32.38;7.35;;;;;;;;;;6287138;22;20030;-48
2023/09/18 12:03:27;;;;;;;22.60;7.28;;;;;;;;;;6286604;22;20011;-49
2023/09/18 12:06:00;;;;;;;12.77;6.80;;;;;;;;;;6286693;22;20003;-53
2023/09/18 12:08:27;;;;;;;21.75;6.82;;;;;;;;;;6286918;22;20004;-53
2023/09/18 12:10:57;;;;;;;17.45;6.53;;;;;;;;;;6286951;22;20019;-47
2023/09/18 12:13:29;;;;;;;16.65;6.90;;;;;;;;;;6287392;22;20007;-49
2023/09/18 12:16:01;;;;;;;12.15;6.47;;;;;;;;;;6285992;22;20007;-50
2023/09/18 12:18:30;;;;;;;;;;;;;;;;;;6288238;22;20023;-50
2023/09/18 12:20:58;;;;;;;27.00;6.80;;;;;;;;;;6287923;22;19899;-48
2023/09/18 12:23:26;;;;;;;38.67;10.10;;;;;;;;;;6289390;22;20008;-50
2023/09/18 12:25:59;;;;;;;29.58;8.02;;;;;;;;;;6289645;22;20175;-50
2023/09/18 12:28:29;;;;;;;46.63;8.95;;;;;;;;;;6289477;22;20000;-50
2023/09/18 12:30:58;;;;;;;26.13;7.75;;;;;;;;;;6289801;22;20022;-57
2023/09/18 12:33:25;;;;;;;27.73;7.72;;;;;;;;;;6286576;22;20011;-52
2023/09/18 12:35:52;;;;;;;28.35;8.23;;;;;;;;;;6286761;22;20049;-53
2023/09/18 12:38:24;;;;;;;54.53;10.35;;;;;;;;;;6286527;22;20004;-49
2023/09/18 12:40:51;;;;;;;47.55;9.75;;;;;;;;;;6286366;22;19999;-50
2023/09/18 12:43:19;;;;;;;35.88;8.70;;;;;;;;;;6286350;22;20022;-48
2023/09/18 12:45:47;;;;;;;41.35;9.73;;;;;;;;;;6286391;22;20004;-51
2023/09/18 12:48:14;;;;;;;48.58;8.90;;;;;;;;;;6288712;22;20280;-53
2023/09/18 12:50:42;;;;;;;46.60;8.90;;;;;;;;;;6289564;22;20007;-55
2023/09/18 12:53:10;;;;;;;23.35;7.10;;;;;;;;;;6288637;22;20004;-49
2023/09/18 12:55:37;;;;;;;34.78;7.95;;;;;;;;;;6289655;22;20220;-52
2023/09/18 12:58:10;;;;;;;21.92;7.40;;;;;;;;;;6289478;22;20006;-51
2023/09/18 13:00:37;;;;;;;24.88;6.35;;;;;;;;;;6289196;22;20011;-46
2023/09/18 13:03:04;;;;;;;12.85;5.88;;;;;;;;;;6289285;22;20210;-51
2023/09/18 13:05:35;;;;;;;15.70;5.90;;;;;;;;;;6289294;22;20140;-49
2023/09/18 13:08:05;;;;;;;14.82;6.40;;;;;;;;;;6288601;22;19992;-50
2023/09/18 13:10:50;;;;;;;14.55;6.68;;;;;;;;;;6289130;22;19999;-47
2023/09/18 13:13:17;;;;;;;15.00;5.82;;;;;;;;;;6288928;22;20014;-53
2023/09/18 13:15:47;;;;;;;76.85;69.22;;;;;;;;;;6289305;22;20003;-53
2023/09/18 13:18:14;;;;;;;71.80;64.32;;;;;;;;;;6289064;22;20014;-48
2023/09/18 13:20:41;;;;;;;56.15;46.83;;;;;;;;;;6288884;22;20000;-55
2023/09/18 13:23:08;;;;;;;34.08;27.23;;;;;;;;;;6288846;22;20016;-53
2023/09/18 13:25:37;;;;;;;39.45;32.53;;;;;;;;;;6288906;22;20008;-52
2023/09/18 13:28:05;;;;;;;31.98;24.67;;;;;;;;;;6288800;22;20232;-50
2023/09/18 13:30:34;;;;;;;23.52;15.73;;;;;;;;;;6289014;22;20011;-48
2023/09/18 13:33:05;;;;;;;23.30;14.18;;;;;;;;;;6288287;22;20061;-53
2023/09/18 13:35:33;;;;;;;23.23;14.23;;;;;;;;;;6289099;22;20043;-58
2023/09/18 13:37:59;;;;;;;18.38;12.10;;;;;;;;;;6288996;22;19999;-57
2023/09/18 13:40:27;;;;;;;16.83;10.75;;;;;;;;;;6288309;22;20050;-44
2023/09/18 13:42:54;;;;;;;12.65;10.65;;;;;;;;;;6287874;22;20003;-43
2023/09/18 13:45:21;;;;;;;13.90;10.00;;;;;;;;;;6288173;22;20047;-46
2023/09/18 13:47:49;;;;;;;14.18;9.85;;;;;;;;;;6287725;22;19987;-47
2023/09/18 13:50:16;;;;;;;12.40;7.60;;;;;;;;;;6287629;22;20333;-47
2023/09/18 13:52:43;;;;;;;10.15;8.30;;;;;;;;;;6287886;22;20000;-45
2023/09/18 13:55:09;;;;;;;11.18;8.90;;;;;;;;;;6287914;22;20015;-44
2023/09/18 13:57:39;;;;;;;12.82;8.57;;;;;;;;;;6287690;22;20300;-46
2023/09/18 14:00:09;;;;;;;12.02;8.63;;;;;;;;;;6286227;22;20319;-45
2023/09/18 14:02:36;;;;;;;11.55;8.27;;;;;;;;;;6287122;22;19999;-46
2023/09/18 14:05:03;;;;;;;14.32;7.00;;;;;;;;;;6287574;22;20015;-52
2023/09/18 14:07:30;;;;;;;9.07;6.35;;;;;;;;;;6287314;22;20000;-42
2023/09/18 14:09:57;;;;;;;12.00;7.28;;;;;;;;;;6287308;22;19988;-46
2023/09/18 14:12:24;;;;;;;8.95;6.53;;;;;;;;;;6287281;22;19996;-44
2023/09/18 14:14:51;;;;;;;9.10;6.43;;;;;;;;;;6287555;22;19999;-46
2023/09/18 14:17:21;;;;;;;8.43;6.80;;;;;;;;;;6287185;22;20063;-42
2023/09/18 14:19:48;;;;;;;7.90;6.70;;;;;;;;;;6287459;22;19992;-42
2023/09/18 14:22:15;;;;;;;15.20;9.80;;;;;;;;;;6287824;22;20073;-47
2023/09/18 14:24:42;;;;;;;8.00;7.25;;;;;;;;;;6287108;22;20038;-44
2023/09/18 14:27:08;;;;;;;7.28;6.57;;;;;;;;;;6287668;22;19996;-49
2023/09/18 14:29:35;;;;;;;8.45;6.95;;;;;;;;;;6287551;22;20003;-46
2023/09/18 14:32:04;;;;;;;11.52;7.50;;;;;;;;;;6288105;22;20023;-47
2023/09/18 14:34:30;;;;;;;10.95;6.95;;;;;;;;;;6287221;22;20311;-53
2023/09/18 14:36:58;;;;;;;13.90;7.50;;;;;;;;;;6287750;22;20061;-46
2023/09/18 14:39:26;;;;;;;11.90;7.15;;;;;;;;;;6287569;22;20015;-43
2023/09/18 14:41:53;;;;;;;10.95;7.60;;;;;;;;;;6287591;22;20063;-45
2023/09/18 14:44:19;;;;;;;8.02;7.13;;;;;;;;;;6287333;22;20000;-46